Time;durP1;ratioP1;P1;durP2;ratioP2;P2;SDS_P1;SDS_P2;PMS_P1;PMS_P2;Temp;Humidity;BMP_temperature;BMP_pressure;BME280_temperature;BME280_humidity;BME280_pressure;Samples;Min_cycle;Max_cycle;Signal;HPM_P1;HPM_P2
2021/08/21 00:02:12;;;;;;;7.25;6.50;;;;;;;18.17;85.44;98869.97;4934500;28;103247;-65
2021/08/21 00:04:41;;;;;;;5.93;5.32;;;;;;;18.02;86.52;98869.66;4934389;28;103222;-65
2021/08/21 00:07:09;;;;;;;6.25;5.35;;;;;;;18.08;86.14;98866.38;4937582;28;102659;-58
2021/08/21 00:09:38;;;;;;;7.85;7.15;;;;;;;17.91;87.11;98867.22;4936272;28;104052;-65
2021/08/21 00:12:07;;;;;;;6.05;5.55;;;;;;;17.95;87.04;98868.63;4932728;28;103235;-59
2021/08/21 00:14:36;;;;;;;5.03;4.63;;;;;;;18.04;86.28;98867.72;4933107;28;104118;-58
2021/08/21 00:17:04;;;;;;;5.07;4.30;;;;;;;18.10;85.86;98864.44;4934772;28;102678;-60
2021/08/21 00:19:32;;;;;;;4.53;4.13;;;;;;;18.15;85.38;98863.94;4935005;28;102974;-65
2021/08/21 00:22:02;;;;;;;4.90;4.40;;;;;;;18.19;85.22;98865.34;4936238;28;103449;-66
2021/08/21 00:24:30;;;;;;;6.40;5.75;;;;;;;18.11;86.06;98868.75;4933569;28;103239;-67
2021/08/21 00:26:58;;;;;;;7.38;6.55;;;;;;;17.85;87.88;98868.69;4918066;28;102803;-66
2021/08/21 00:29:26;;;;;;;8.30;7.45;;;;;;;17.52;89.61;98858.63;4921605;28;102800;-60
2021/08/21 00:31:54;;;;;;;7.22;6.63;;;;;;;17.49;89.82;98858.13;4931357;28;103669;-66
2021/08/21 00:34:22;;;;;;;6.60;6.00;;;;;;;17.51;90.41;98859.66;4937029;28;103217;-60
2021/08/21 00:36:50;;;;;;;6.78;6.18;;;;;;;17.47;89.99;98855.56;4936562;28;102590;-59
2021/08/21 00:39:19;;;;;;;6.35;5.75;;;;;;;17.56;89.47;98856.53;4937336;28;102584;-60
2021/08/21 00:41:48;;;;;;;7.60;6.90;;;;;;;17.21;91.56;98857.25;4930990;28;103311;-66
2021/08/21 00:44:16;;;;;;;8.23;6.70;;;;;;;17.12;91.76;98858.19;4934347;28;103316;-66
2021/08/21 00:47:01;;;;;;;8.38;6.78;;;;;;;17.10;90.88;98854.78;4934747;28;102634;-66
2021/08/21 00:49:29;;;;;;;7.28;6.53;;;;;;;17.15;90.82;98853.38;4933875;28;102772;-66
2021/08/21 00:51:59;;;;;;;6.25;5.65;;;;;;;17.20;90.93;98858.28;4936042;28;103278;-66
2021/08/21 00:54:28;;;;;;;6.90;5.43;;;;;;;17.26;90.28;98849.69;4934149;28;103008;-66
2021/08/21 00:56:57;;;;;;;7.15;5.82;;;;;;;17.09;91.39;98859.31;4919553;28;102780;-66
2021/08/21 00:59:25;;;;;;;8.90;6.57;;;;;;;16.81;93.21;98844.28;4933880;28;103697;-60
2021/08/21 01:01:54;;;;;;;8.55;7.45;;;;;;;16.80;93.25;98848.75;4910384;28;104277;-60
2021/08/21 01:04:23;;;;;;;6.13;5.00;;;;;;;16.86;93.06;98846.50;4936966;28;103273;-59
2021/08/21 01:06:51;;;;;;;7.57;6.97;;;;;;;16.74;92.47;98849.34;4922399;28;102835;-66
2021/08/21 01:09:19;;;;;;;7.93;7.22;;;;;;;16.66;93.32;98846.56;4919454;28;103052;-60
2021/08/21 01:11:50;;;;;;;7.70;5.55;;;;;;;16.85;92.70;98844.78;4917908;28;104259;-59
2021/08/21 01:14:18;;;;;;;7.68;6.93;;;;;;;16.84;92.37;98843.97;4917523;28;103296;-59
2021/08/21 01:16:47;;;;;;;7.45;6.70;;;;;;;16.78;92.01;98850.75;4915636;28;102700;-59
2021/08/21 01:19:17;;;;;;;7.32;6.40;;;;;;;16.66;92.79;98851.91;4933553;28;102880;-59
2021/08/21 01:21:45;;;;;;;7.65;6.28;;;;;;;16.59;93.29;98845.44;4934861;28;103361;-59
2021/08/21 01:24:14;;;;;;;6.38;5.78;;;;;;;16.75;92.23;98852.84;4920280;28;103082;-59
2021/08/21 01:26:51;;;;;;;7.07;6.40;;;;;;;16.62;92.79;98845.16;4934603;28;102968;-59
2021/08/21 01:29:27;;;;;;;6.90;6.30;;;;;;;16.62;92.49;98847.81;4915222;28;102843;-65
2021/08/21 01:32:15;;;;;;;6.35;5.75;;;;;;;16.63;92.99;98846.84;4932810;28;104127;-64
2021/08/21 01:34:44;;;;;;;5.57;5.07;;;;;;;16.73;92.13;98839.66;4914776;28;104882;-65
2021/08/21 01:37:12;;;;;;;5.88;5.32;;;;;;;16.84;90.86;98843.13;4917939;28;102747;-59
2021/08/21 01:40:14;;;;;;;6.38;5.78;;;;;;;16.79;91.17;98839.06;4905028;28;104152;-59
2021/08/21 01:42:44;;;;;;;6.47;5.97;;;;;;;16.74;91.53;98844.00;4932602;28;103685;-66
2021/08/21 01:45:14;;;;;;;5.47;4.97;;;;;;;16.80;90.79;98843.44;4931023;28;103235;-59
2021/08/21 01:47:46;;;;;;;4.28;3.88;;;;;;;16.90;90.45;98845.22;4919073;28;103144;-59
2021/08/21 01:50:18;;;;;;;4.35;4.05;;;;;;;16.91;89.94;98838.88;4917059;28;102721;-65
2021/08/21 01:52:47;;;;;;;6.03;5.53;;;;;;;16.77;91.11;98842.88;4920865;28;103304;-66
2021/08/21 01:55:36;;;;;;;5.43;4.97;;;;;;;16.60;92.27;98843.63;4915829;28;103242;-66
2021/08/21 01:58:19;;;;;;;5.10;4.60;;;;;;;16.71;91.60;98838.97;4937067;28;102701;-66
2021/08/21 02:00:51;;;;;;;6.40;5.70;;;;;;;16.72;90.50;98837.97;4915016;28;102998;-66
2021/08/21 02:03:24;;;;;;;5.03;4.53;;;;;;;16.71;91.33;98844.28;4921293;28;104191;-66
2021/08/21 02:05:52;;;;;;;6.10;5.53;;;;;;;16.67;91.44;98840.22;4937667;28;103226;-60
2021/08/21 02:08:21;;;;;;;5.70;5.20;;;;;;;16.69;91.29;98840.94;4919139;28;102850;-59
2021/08/21 02:10:50;;;;;;;6.70;6.10;;;;;;;16.55;92.14;98833.41;4919320;28;104055;-59
2021/08/21 02:13:20;;;;;;;5.47;4.97;;;;;;;16.48;93.46;98837.59;4930314;28;103323;-58
2021/08/21 02:15:48;;;;;;;5.63;5.13;;;;;;;16.48;93.66;98842.91;4919785;28;104545;-59
2021/08/21 02:18:17;;;;;;;4.70;4.30;;;;;;;16.61;92.51;98832.81;4920763;28;102662;-65
2021/08/21 02:20:46;;;;;;;5.82;5.32;;;;;;;16.70;92.02;98829.25;4938513;28;102635;-65
2021/08/21 02:23:26;;;;;;;5.03;4.45;;;;;;;16.78;91.52;98829.41;4916311;28;105226;-65
2021/08/21 02:25:57;;;;;;;6.03;5.47;;;;;;;16.85;91.08;98834.13;4919803;28;104260;-65
2021/08/21 02:28:36;;;;;;;6.82;6.22;;;;;;;16.57;93.39;98831.44;4921124;28;103047;-65
2021/08/21 02:31:08;;;;;;;6.78;6.18;;;;;;;16.59;93.76;98828.63;4919629;28;103180;-58
2021/08/21 02:33:36;;;;;;;5.18;4.68;;;;;;;16.69;93.11;98830.28;4919477;28;103282;-59
2021/08/21 02:36:04;;;;;;;5.40;5.00;;;;;;;16.78;92.46;98829.41;4922559;28;102761;-59
2021/08/21 02:38:33;;;;;;;5.20;4.80;;;;;;;16.83;91.65;98831.63;4917559;28;102937;-66
2021/08/21 02:41:01;;;;;;;7.60;5.47;;;;;;;16.83;91.59;98833.44;4917987;28;103634;-66
2021/08/21 02:43:29;;;;;;;5.25;4.75;;;;;;;16.69;92.74;98827.59;4930479;28;103255;-66
2021/08/21 02:45:58;;;;;;;5.82;5.32;;;;;;;16.71;92.07;98822.94;4936947;28;103224;-65
2021/08/21 02:48:27;;;;;;;7.30;6.60;;;;;;;16.59;92.57;98809.97;4917998;28;102848;-59
2021/08/21 02:50:55;;;;;;;7.72;7.03;;;;;;;16.51;93.43;98813.31;4938408;28;104368;-59
2021/08/21 02:53:23;;;;;;;7.53;6.70;;;;;;;16.52;92.99;98817.66;4940294;28;103226;-59
2021/08/21 02:55:52;;;;;;;6.10;5.50;;;;;;;16.54;92.91;98813.03;4917565;28;103189;-59
2021/08/21 02:58:20;;;;;;;5.43;4.93;;;;;;;16.46;93.72;98812.06;4919331;28;102708;-59
2021/08/21 03:00:48;;;;;;;6.45;5.85;;;;;;;16.43;93.49;98813.19;4921852;28;102790;-59
2021/08/21 03:03:18;;;;;;;9.18;7.13;;;;;;;16.32;93.58;98813.34;4918515;28;103576;-59
2021/08/21 03:05:49;;;;;;;7.55;6.93;;;;;;;16.30;93.93;98822.50;4920188;28;103283;-59
2021/08/21 03:08:22;;;;;;;6.78;6.20;;;;;;;16.21;95.08;98818.84;4934517;28;102786;-59
2021/08/21 03:10:52;;;;;;;6.90;6.32;;;;;;;16.27;94.52;98814.78;4916032;28;102716;-65
2021/08/21 03:13:22;;;;;;;5.50;5.00;;;;;;;16.29;93.90;98816.31;4917303;28;104111;-59
2021/08/21 03:15:51;;;;;;;7.45;6.85;;;;;;;16.31;92.84;98814.34;4936248;28;103236;-59
2021/08/21 03:18:20;;;;;;;7.47;6.72;;;;;;;16.20;93.35;98817.16;4916941;28;103228;-60
2021/08/21 03:20:53;;;;;;;6.43;5.82;;;;;;;16.20;93.88;98817.16;4914876;28;104014;-60
2021/08/21 03:23:21;;;;;;;5.38;4.90;;;;;;;16.23;93.30;98816.88;4919179;28;103366;-60
2021/08/21 03:25:50;;;;;;;7.88;7.07;;;;;;;16.21;92.18;98824.19;4917562;28;103475;-60
2021/08/21 03:28:19;;;;;;;5.43;4.93;;;;;;;16.21;93.20;98813.53;4919532;28;102773;-66
2021/08/21 03:30:47;;;;;;;5.65;5.15;;;;;;;16.25;92.62;98821.06;4914642;28;102849;-65
2021/08/21 03:33:26;;;;;;;4.75;4.35;;;;;;;16.28;92.14;98821.81;4917771;28;103291;-60
2021/08/21 03:35:54;;;;;;;5.20;4.72;;;;;;;16.15;92.71;98822.09;4917800;28;103385;-59
2021/08/21 03:38:24;;;;;;;8.77;6.32;;;;;;;15.96;93.82;98816.78;4919764;28;103240;-65
2021/08/21 03:41:09;;;;;;;6.68;6.05;;;;;;;16.00;93.83;98811.03;4922946;28;103133;-65
2021/08/21 03:43:48;;;;;;;5.68;5.18;;;;;;;15.94;94.31;98813.44;4918195;28;105686;-65
2021/08/21 03:46:16;;;;;;;7.05;6.18;;;;;;;15.99;93.18;98813.84;4920706;28;103242;-63
2021/08/21 03:48:45;;;;;;;7.03;6.28;;;;;;;15.93;93.50;98811.75;4937332;28;102642;-63
2021/08/21 03:51:14;;;;;;;5.95;5.45;;;;;;;15.89;94.12;98819.16;4916924;28;104704;-63
2021/08/21 03:53:45;;;;;;;4.97;4.57;;;;;;;15.95;93.72;98821.28;4917613;28;103979;-63
2021/08/21 03:56:15;;;;;;;6.07;4.60;;;;;;;15.94;93.36;98819.59;4916761;28;103264;-59
2021/08/21 03:58:50;;;;;;;7.03;6.32;;;;;;;15.79;94.19;98812.16;4917485;28;102820;-63
2021/08/21 04:01:18;;;;;;;7.38;5.85;;;;;;;15.69;94.89;98817.47;4936555;28;103600;-59
2021/08/21 04:03:52;;;;;;;5.13;4.72;;;;;;;15.74;95.42;98815.25;4932827;28;103435;-59
2021/08/21 04:06:21;;;;;;;7.45;6.75;;;;;;;15.62;95.00;98822.53;4918660;28;105817;-63
2021/08/21 04:08:50;;;;;;;6.68;6.03;;;;;;;15.63;95.59;98818.06;4909858;28;102919;-63
2021/08/21 04:11:27;;;;;;;11.05;7.72;;;;;;;15.44;96.79;98821.50;4926089;28;102860;-60
2021/08/21 04:14:15;;;;;;;7.28;6.18;;;;;;;15.56;96.54;98817.78;4908716;28;104584;-59
2021/08/21 04:16:43;;;;;;;8.15;7.35;;;;;;;15.57;95.55;98814.13;4913425;28;103403;-59
2021/08/21 04:19:14;;;;;;;6.15;5.65;;;;;;;15.65;95.23;98824.09;4917463;28;102780;-59
2021/08/21 04:21:44;;;;;;;6.47;5.88;;;;;;;15.64;95.27;98822.38;4915478;28;102961;-63
2021/08/21 04:24:20;;;;;;;6.38;5.88;;;;;;;15.68;95.26;98836.28;4936006;28;103277;-59
2021/08/21 04:26:54;;;;;;;5.35;4.95;;;;;;;15.70;95.04;98829.81;4916187;28;103240;-63
2021/08/21 04:29:23;;;;;;;7.47;6.63;;;;;;;15.55;95.41;98840.03;4929102;28;103328;-60
2021/08/21 04:31:51;;;;;;;7.85;6.93;;;;;;;15.49;96.09;98826.47;4927023;28;102808;-62
2021/08/21 04:34:21;;;;;;;6.22;5.72;;;;;;;15.53;95.99;98833.19;4908955;28;103255;-63
2021/08/21 04:36:50;;;;;;;5.72;5.22;;;;;;;15.65;95.47;98827.59;4910849;28;103292;-63
2021/08/21 04:39:24;;;;;;;5.72;5.22;;;;;;;15.72;94.87;98833.19;4910945;28;103105;-59
2021/08/21 04:41:54;;;;;;;5.35;4.85;;;;;;;15.76;94.64;98823.09;4911345;28;102786;-58
2021/08/21 04:44:23;;;;;;;9.27;6.70;;;;;;;15.75;94.24;98832.91;4911557;28;104064;-59
2021/08/21 04:46:51;;;;;;;5.28;4.78;;;;;;;15.85;94.63;98832.91;4911528;28;103402;-59
2021/08/21 04:49:24;;;;;;;6.00;5.45;;;;;;;15.92;93.88;98839.34;4929205;28;103047;-62
2021/08/21 04:51:54;;;;;;;6.18;4.50;;;;;;;15.99;93.72;98836.00;4928461;28;105843;-62
2021/08/21 04:54:23;;;;;;;5.70;4.38;;;;;;;16.07;93.47;98843.28;4911681;28;103381;-63
2021/08/21 04:56:51;;;;;;;4.63;4.22;;;;;;;16.12;93.15;98841.03;4931750;28;103342;-58
2021/08/21 04:59:42;;;;;;;4.20;3.80;;;;;;;16.18;92.19;98840.47;4929379;28;103843;-59
2021/08/21 05:02:11;;;;;;;6.05;5.50;;;;;;;16.13;91.77;98842.72;4910658;28;103424;-62
2021/08/21 05:04:42;;;;;;;7.47;6.78;;;;;;;15.91;93.80;98838.53;4914587;28;103306;-63
2021/08/21 05:07:10;;;;;;;7.07;6.47;;;;;;;15.89;95.71;98839.63;4916790;28;103475;-62
2021/08/21 05:09:44;;;;;;;7.28;6.63;;;;;;;15.87;96.36;98849.59;4914235;28;102697;-63
2021/08/21 05:12:20;;;;;;;7.70;6.97;;;;;;;16.07;95.33;98848.63;4920354;28;102699;-64
2021/08/21 05:15:02;;;;;;;6.53;5.95;;;;;;;16.21;94.42;98842.84;4917548;28;103497;-63
2021/08/21 05:17:32;;;;;;;5.18;4.78;;;;;;;16.42;93.57;98843.50;4918406;28;105455;-64
2021/08/21 05:20:28;;;;;;;5.35;4.85;;;;;;;16.59;92.90;98848.13;4934974;28;102695;-64
2021/08/21 05:23:13;;;;;;;4.65;4.25;;;;;;;16.69;92.73;98850.75;4921405;28;103981;-60
2021/08/21 05:25:44;;;;;;;4.90;4.40;;;;;;;16.85;91.59;98844.78;4938994;28;104126;-58
2021/08/21 05:28:15;;;;;;;6.10;4.78;;;;;;;16.96;90.27;98847.28;4938015;28;103217;-63
2021/08/21 05:30:43;;;;;;;8.82;6.45;;;;;;;16.97;89.63;98839.13;4919930;28;103115;-62
2021/08/21 05:33:13;;;;;;;7.30;6.60;;;;;;;17.01;90.59;98845.03;4938416;28;103748;-62
2021/08/21 05:35:43;;;;;;;5.55;5.05;;;;;;;17.14;90.38;98850.84;4931047;28;103297;-63
2021/08/21 05:38:12;;;;;;;7.65;6.47;;;;;;;17.06;91.04;98845.41;4929995;28;103354;-58
2021/08/21 05:40:41;;;;;;;8.73;7.88;;;;;;;16.62;93.94;98855.81;4929166;28;102710;-60
2021/08/21 05:43:10;;;;;;;10.90;8.02;;;;;;;16.46;95.49;98854.72;4933519;28;102778;-60
2021/08/21 05:45:39;;;;;;;9.57;8.65;;;;;;;16.64;95.75;98848.53;4932829;28;104105;-61
2021/08/21 05:48:08;;;;;;;11.07;7.90;;;;;;;16.54;95.78;98850.38;4911423;28;103194;-59
2021/08/21 05:50:36;;;;;;;10.93;8.65;;;;;;;16.46;96.74;98850.22;4933077;28;103076;-60
2021/08/21 05:53:05;;;;;;;8.52;7.82;;;;;;;16.72;95.62;98846.00;4931653;28;102961;-60
2021/08/21 05:55:34;;;;;;;6.82;6.22;;;;;;;17.04;94.21;98852.75;4928435;28;105182;-60
2021/08/21 05:58:07;;;;;;;9.38;7.80;;;;;;;16.78;95.29;98855.22;4911949;28;105340;-59
2021/08/21 06:00:36;;;;;;;8.80;8.02;;;;;;;16.76;96.54;98852.69;4919011;28;102897;-60
2021/08/21 06:03:04;;;;;;;8.70;7.90;;;;;;;16.88;96.40;98860.50;4929887;28;102979;-60
2021/08/21 06:05:33;;;;;;;8.77;7.03;;;;;;;16.96;96.44;98856.13;4927602;28;105786;-58
2021/08/21 06:08:06;;;;;;;7.28;6.30;;;;;;;17.28;95.26;98858.38;4931771;28;103208;-60
2021/08/21 06:10:38;;;;;;;6.50;5.90;;;;;;;17.34;94.52;98861.28;4928954;28;102794;-61
2021/08/21 06:13:07;;;;;;;7.07;6.38;;;;;;;17.70;92.71;98864.88;4914707;28;102794;-59
2021/08/21 06:15:35;;;;;;;7.88;7.13;;;;;;;17.68;91.83;98871.38;4930363;28;103805;-59
2021/08/21 06:18:04;;;;;;;6.38;5.30;;;;;;;17.78;91.87;98872.97;4929706;28;103302;-61
2021/08/21 06:20:32;;;;;;;6.43;5.65;;;;;;;17.98;89.83;98864.81;4939994;28;102746;-61
2021/08/21 06:22:59;;;;;;;9.93;8.38;;;;;;;17.63;91.16;98869.13;4934465;28;102841;-60
2021/08/21 06:25:29;;;;;;;10.05;8.48;;;;;;;17.58;92.28;98866.06;4934645;28;104196;-59
2021/08/21 06:27:57;;;;;;;9.65;8.70;;;;;;;17.30;93.11;98869.72;4931132;28;103225;-59
2021/08/21 06:30:25;;;;;;;9.38;8.45;;;;;;;17.19;94.29;98869.94;4933863;28;102783;-60
2021/08/21 06:32:53;;;;;;;9.50;8.55;;;;;;;17.49;93.00;98869.63;4934940;28;104004;-59
2021/08/21 06:35:21;;;;;;;7.70;7.00;;;;;;;17.57;93.19;98869.72;4935867;28;103293;-59
2021/08/21 06:37:49;;;;;;;9.02;8.23;;;;;;;17.58;92.35;98875.91;4937521;28;102997;-60
2021/08/21 06:40:18;;;;;;;7.18;6.47;;;;;;;18.19;89.83;98873.34;4937839;28;102670;-59
2021/08/21 06:42:47;;;;;;;7.93;7.22;;;;;;;18.47;88.42;98864.19;4935655;28;104036;-59
2021/08/21 06:45:22;;;;;;;6.63;6.05;;;;;;;18.38;88.22;98874.00;4917920;28;103213;-59
2021/08/21 06:47:50;;;;;;;6.25;5.65;;;;;;;18.85;86.34;98879.03;4917927;28;103991;-59
2021/08/21 06:50:18;;;;;;;5.88;5.38;;;;;;;19.06;85.20;98869.59;4939173;28;103903;-61
2021/08/21 06:52:46;;;;;;;7.03;6.43;;;;;;;19.03;85.43;98869.91;4939071;28;102830;-59
2021/08/21 06:55:15;;;;;;;7.82;7.03;;;;;;;19.08;84.18;98864.94;4938100;28;103481;-59
2021/08/21 06:58:04;;;;;;;6.47;5.82;;;;;;;18.81;85.12;98867.78;4930182;28;103436;-64
2021/08/21 07:00:32;;;;;;;8.32;7.20;;;;;;;18.63;85.97;98877.72;4910380;28;103396;-63
2021/08/21 07:03:00;;;;;;;6.72;6.03;;;;;;;18.75;85.93;98863.06;4932160;28;102907;-63
2021/08/21 07:05:28;;;;;;;5.95;5.32;;;;;;;19.16;83.88;98865.97;4937201;28;103733;-62
2021/08/21 07:07:56;;;;;;;8.63;6.40;;;;;;;19.53;82.65;98858.44;4935083;28;103193;-61
2021/08/21 07:10:24;;;;;;;7.13;5.60;;;;;;;19.80;81.34;98860.00;4936931;28;102873;-62
2021/08/21 07:12:52;;;;;;;7.47;6.60;;;;;;;19.81;80.79;98862.53;4938742;28;103668;-63
2021/08/21 07:15:22;;;;;;;7.45;5.88;;;;;;;19.84;80.80;98853.31;4938323;28;104195;-62
2021/08/21 07:17:50;;;;;;;7.40;6.70;;;;;;;19.96;80.80;98855.50;4938098;28;103093;-61
2021/08/21 07:20:19;;;;;;;10.00;6.93;;;;;;;19.96;79.87;98855.50;4936636;28;102716;-62
2021/08/21 07:22:47;;;;;;;8.35;5.57;;;;;;;20.51;78.18;98855.69;4919268;28;103231;-62
2021/08/21 07:25:15;;;;;;;6.63;5.85;;;;;;;20.77;77.57;98855.50;4935286;28;103371;-62
2021/08/21 07:27:43;;;;;;;5.60;5.10;;;;;;;20.78;76.87;98857.13;4936099;28;103021;-62
2021/08/21 07:30:12;;;;;;;5.93;5.38;;;;;;;20.50;77.65;98853.16;4935831;28;102685;-64
2021/08/21 07:32:41;;;;;;;8.50;6.53;;;;;;;20.48;77.46;98855.19;4937035;28;103822;-63
2021/08/21 07:35:10;;;;;;;5.15;4.65;;;;;;;21.01;77.16;98850.03;4936986;28;103300;-62
2021/08/21 07:37:39;;;;;;;7.88;5.70;;;;;;;21.33;75.69;98862.53;4919574;28;103481;-62
2021/08/21 07:40:09;;;;;;;5.38;4.88;;;;;;;21.50;72.96;98858.72;4938304;28;102728;-63
2021/08/21 07:42:37;;;;;;;5.65;4.32;;;;;;;21.97;72.35;98861.34;4933784;28;104292;-68
2021/08/21 07:45:06;;;;;;;4.65;4.25;;;;;;;22.04;71.58;98854.22;4934772;28;103056;-64
2021/08/21 07:47:34;;;;;;;4.93;4.43;;;;;;;22.64;69.86;98853.41;4934680;28;103210;-61
2021/08/21 07:50:04;;;;;;;5.50;4.78;;;;;;;22.94;68.24;98849.72;4933500;28;102639;-66
2021/08/21 07:52:32;;;;;;;4.10;3.80;;;;;;;23.01;68.21;98850.66;4936173;28;103024;-66
2021/08/21 07:55:00;;;;;;;4.65;4.25;;;;;;;23.44;66.82;98847.09;4937576;28;104320;-65
2021/08/21 07:57:28;;;;;;;4.35;4.00;;;;;;;23.74;65.61;98855.13;4919060;28;103232;-65
2021/08/21 07:59:56;;;;;;;5.22;3.85;;;;;;;24.09;65.00;98852.41;4934720;28;102757;-65
2021/08/21 08:02:24;;;;;;;19.00;11.43;;;;;;;24.26;65.07;98853.00;4933494;28;103681;-62
2021/08/21 08:04:52;;;;;;;6.50;5.03;;;;;;;24.24;62.99;98849.66;4936522;28;103004;-68
2021/08/21 08:07:21;;;;;;;4.70;4.30;;;;;;;24.46;61.92;98858.56;4937370;28;103198;-66
2021/08/21 08:09:49;;;;;;;4.70;4.13;;;;;;;24.75;61.08;98856.53;4916463;28;102835;-67
2021/08/21 08:12:17;;;;;;;3.60;3.30;;;;;;;25.23;61.14;98856.66;4934860;28;102663;-67
2021/08/21 08:14:45;;;;;;;5.25;4.72;;;;;;;25.26;59.72;98853.53;4935952;28;103273;-67
2021/08/21 08:17:13;;;;;;;5.15;4.70;;;;;;;25.57;59.96;98853.09;4935922;28;103190;-67
2021/08/21 08:19:41;;;;;;;5.80;4.20;;;;;;;25.64;58.54;98848.50;4935592;28;102653;-67
2021/08/21 08:22:09;;;;;;;4.45;4.05;;;;;;;25.46;58.23;98856.34;4935155;28;102693;-67
2021/08/21 08:24:38;;;;;;;5.65;4.45;;;;;;;25.66;59.45;98841.03;4930858;28;103269;-67
2021/08/21 08:27:06;;;;;;;5.00;4.50;;;;;;;26.32;56.89;98855.56;4936875;28;103244;-63
2021/08/21 08:29:34;;;;;;;5.18;4.68;;;;;;;26.45;55.56;98852.84;4934128;28;102647;-67
2021/08/21 08:32:02;;;;;;;4.60;4.20;;;;;;;26.36;54.75;98848.69;4933962;28;102700;-62
2021/08/21 08:34:30;;;;;;;5.07;4.53;;;;;;;26.60;55.78;98848.06;4918441;28;103066;-63
2021/08/21 08:36:58;;;;;;;6.03;3.95;;;;;;;27.03;54.67;98849.28;4936230;28;103271;-67
2021/08/21 08:39:26;;;;;;;4.88;3.65;;;;;;;26.95;53.49;98846.78;4935249;28;102994;-67
2021/08/21 08:41:57;;;;;;;4.13;3.75;;;;;;;27.79;54.93;98851.34;4934686;28;104039;-67
2021/08/21 08:44:28;;;;;;;3.47;3.17;;;;;;;27.70;53.21;98841.78;4932018;28;103817;-67
2021/08/21 08:46:56;;;;;;;5.03;4.10;;;;;;;27.88;50.68;98834.56;4933776;28;103315;-67
2021/08/21 08:49:24;;;;;;;4.10;3.70;;;;;;;28.06;52.94;98839.28;4934941;28;102699;-67
2021/08/21 08:51:53;;;;;;;3.78;3.47;;;;;;;28.37;50.07;98841.16;4918461;28;103256;-65
2021/08/21 08:54:21;;;;;;;7.05;3.75;;;;;;;28.71;51.20;98846.13;4934779;28;103041;-62
2021/08/21 08:56:49;;;;;;;4.20;3.78;;;;;;;28.47;49.69;98841.47;4939173;28;103183;-67
2021/08/21 08:59:18;;;;;;;7.55;3.70;;;;;;;28.91;50.49;98845.94;4939537;28;102720;-67
2021/08/21 09:01:46;;;;;;;4.28;3.88;;;;;;;28.88;50.25;98844.50;4938162;28;102676;-68
2021/08/21 09:04:18;;;;;;;6.00;4.32;;;;;;;28.38;51.30;98834.69;4936487;28;104142;-68
2021/08/21 09:06:47;;;;;;;4.50;3.85;;;;;;;28.73;50.22;98835.84;4931719;28;103324;-72
2021/08/21 09:09:17;;;;;;;4.57;3.45;;;;;;;29.60;49.28;98835.53;4932508;28;102716;-61
2021/08/21 09:11:49;;;;;;;3.50;3.20;;;;;;;29.91;49.74;98842.69;4933914;28;103548;-62
2021/08/21 09:14:28;;;;;;;2.95;2.63;;;;;;;30.28;47.71;98844.22;4931171;28;103339;-62
2021/08/21 09:17:16;;;;;;;3.25;2.95;;;;;;;30.31;48.04;98838.31;4931508;28;103000;-71
2021/08/21 09:19:46;;;;;;;3.78;3.45;;;;;;;30.76;47.55;98826.88;4935202;28;103016;-67
2021/08/21 09:22:14;;;;;;;3.60;3.30;;;;;;;30.76;47.95;98826.88;4932597;28;103826;-68
2021/08/21 09:24:43;;;;;;;5.10;4.25;;;;;;;29.65;49.21;98832.09;4933180;28;104195;-68
2021/08/21 09:27:22;;;;;;;4.35;3.95;;;;;;;29.71;47.89;98831.19;4932012;28;103322;-63
2021/08/21 09:30:11;;;;;;;4.65;4.18;;;;;;;29.07;49.35;98829.03;4932867;28;103048;-62
2021/08/21 09:32:39;;;;;;;6.10;4.35;;;;;;;29.67;49.97;98821.84;4930015;28;104371;-69
2021/08/21 09:35:09;;;;;;;5.75;4.35;;;;;;;29.13;49.53;98822.69;4930475;28;103329;-62
2021/08/21 09:37:49;;;;;;;5.10;4.22;;;;;;;29.40;49.90;98815.06;4930755;28;103211;-61
2021/08/21 09:40:27;;;;;;;4.72;4.05;;;;;;;30.25;48.48;98822.06;4929803;28;102911;-61
2021/08/21 09:42:55;;;;;;;4.45;4.05;;;;;;;29.77;48.43;98822.94;4932744;28;102856;-62
2021/08/21 09:45:25;;;;;;;4.10;3.70;;;;;;;30.34;47.12;98817.94;4933750;28;103252;-69
2021/08/21 09:47:59;;;;;;;4.85;3.80;;;;;;;29.74;48.16;98822.56;4933560;28;104080;-62
2021/08/21 09:50:31;;;;;;;4.60;4.20;;;;;;;29.19;50.05;98816.34;4929979;28;102706;-62
2021/08/21 09:53:04;;;;;;;4.35;3.92;;;;;;;30.05;49.65;98816.91;4932618;28;104024;-62
2021/08/21 09:55:33;;;;;;;6.05;3.80;;;;;;;30.39;48.32;98816.19;4936423;28;104195;-63
2021/08/21 09:58:04;;;;;;;4.38;3.97;;;;;;;30.64;47.29;98815.13;4940034;28;103238;-62
2021/08/21 10:00:36;;;;;;;4.50;4.20;;;;;;;30.41;47.40;98815.94;4931351;28;102688;-62
2021/08/21 10:03:05;;;;;;;4.22;3.92;;;;;;;30.80;47.92;98808.97;4931486;28;104137;-68
2021/08/21 10:05:34;;;;;;;6.03;4.10;;;;;;;30.84;45.85;98804.72;4930731;28;103786;-69
2021/08/21 10:08:06;;;;;;;5.68;4.75;;;;;;;30.33;47.74;98798.00;4910977;28;103486;-69
2021/08/21 10:10:36;;;;;;;6.07;4.68;;;;;;;30.04;47.53;98792.59;4907976;28;103183;-70
2021/08/21 10:13:10;;;;;;;4.88;4.47;;;;;;;30.12;47.96;98800.47;4930390;28;102851;-69
2021/08/21 10:15:41;;;;;;;5.18;4.72;;;;;;;29.36;50.38;98802.97;4930471;28;103265;-69
2021/08/21 10:18:10;;;;;;;5.10;4.60;;;;;;;30.18;48.16;98797.63;4929428;28;103220;-69
2021/08/21 10:20:39;;;;;;;5.45;4.95;;;;;;;30.34;47.69;98796.97;4927931;28;103867;-63
2021/08/21 10:23:09;;;;;;;5.13;4.00;;;;;;;30.90;46.82;98782.78;4928993;28;102842;-62
2021/08/21 10:25:43;;;;;;;6.90;5.03;;;;;;;30.54;47.10;98793.09;4908669;28;103283;-69
2021/08/21 10:28:14;;;;;;;5.30;4.78;;;;;;;30.77;47.21;98793.91;4929289;28;103195;-62
2021/08/21 10:30:45;;;;;;;7.70;4.32;;;;;;;30.53;48.45;98788.69;4928635;28;103150;-61
2021/08/21 10:33:14;;;;;;;6.75;4.57;;;;;;;31.07;46.52;98782.91;4927862;28;102881;-69
2021/08/21 10:35:48;;;;;;;5.88;4.63;;;;;;;30.98;47.24;98782.44;4927411;28;103300;-62
2021/08/21 10:38:36;;;;;;;6.80;5.53;;;;;;;30.79;47.32;98780.88;4930354;28;103014;-69
2021/08/21 10:41:32;;;;;;;5.75;4.70;;;;;;;29.71;47.10;98787.63;4930740;28;103132;-69
2021/08/21 10:44:01;;;;;;;4.90;3.85;;;;;;;30.94;47.33;98774.94;4928443;28;103153;-61
2021/08/21 10:47:01;;;;;;;5.50;5.00;;;;;;;30.64;47.59;98772.34;4925805;28;104166;-69
2021/08/21 10:49:51;;;;;;;7.53;5.68;;;;;;;30.42;47.45;98774.00;4927601;28;103314;-62
2021/08/21 10:52:54;;;;;;;6.00;5.20;;;;;;;30.50;46.98;98773.66;4920218;28;103197;-61
2021/08/21 10:55:24;;;;;;;5.30;4.53;;;;;;;30.80;47.92;98770.78;4914849;28;103908;-62
2021/08/21 10:57:58;;;;;;;4.10;3.72;;;;;;;30.93;47.93;98770.59;4911505;28;104071;-60
2021/08/21 11:00:51;;;;;;;7.15;5.03;;;;;;;30.31;48.59;98772.91;4924082;28;103218;-68
2021/08/21 11:03:47;;;;;;;4.80;4.40;;;;;;;31.35;47.06;98769.28;4919867;28;102993;-69
2021/08/21 11:06:30;;;;;;;5.32;4.82;;;;;;;31.18;45.82;98767.56;4912051;28;102766;-67
2021/08/21 11:09:10;;;;;;;5.93;4.20;;;;;;;31.64;47.21;98761.16;4919570;28;103261;-69
2021/08/21 11:11:43;;;;;;;5.18;4.50;;;;;;;31.99;45.49;98764.50;4919880;28;103200;-69
2021/08/21 11:14:33;;;;;;;6.82;5.28;;;;;;;30.99;44.72;98756.00;4919182;28;103062;-70
2021/08/21 11:17:02;;;;;;;5.13;4.63;;;;;;;29.83;48.12;98764.88;4922791;28;102747;-69
2021/08/21 11:19:44;;;;;;;5.07;4.45;;;;;;;30.21;47.97;98756.28;4920632;28;103401;-70
2021/08/21 11:22:21;;;;;;;6.07;5.50;;;;;;;29.70;47.75;98759.56;4908559;28;103377;-67
2021/08/21 11:25:06;;;;;;;5.75;5.25;;;;;;;29.29;49.46;98752.19;4912130;28;103202;-62
2021/08/21 11:27:45;;;;;;;6.95;4.72;;;;;;;29.80;48.31;98750.88;4917352;28;102857;-61
2021/08/21 11:30:24;;;;;;;4.93;4.43;;;;;;;30.15;48.14;98743.59;4897402;28;103248;-61
2021/08/21 11:33:13;;;;;;;5.00;4.50;;;;;;;30.89;48.21;98736.63;4923673;28;103216;-61
2021/08/21 11:35:49;;;;;;;5.20;4.68;;;;;;;31.56;45.53;98738.59;4917232;28;103075;-61
2021/08/21 11:38:27;;;;;;;5.72;5.22;;;;;;;31.58;45.59;98740.28;4921618;28;103434;-61
2021/08/21 11:40:57;;;;;;;5.03;4.63;;;;;;;31.87;46.09;98739.16;4915865;28;103796;-61
2021/08/21 11:43:27;;;;;;;6.07;4.90;;;;;;;32.26;44.60;98735.47;4922398;28;103228;-69
2021/08/21 11:45:57;;;;;;;5.13;4.72;;;;;;;32.31;44.36;98738.28;4920746;28;102705;-62